Date,TemperatureHighF,TemperatureAvgF,TemperatureLowF,DewpointHighF,DewpointAvgF,DewpointLowF,HumidityHigh,HumidityAvg,HumidityLow,PressureMaxIn,PressureMinIn,WindSpeedMaxMPH,WindSpeedAvgMPH,GustSpeedMaxMPH,PrecipitationSumIn
2013-10-1,87.1,80.9,76.1,74.7,72.8,68.1,90,77,55,30.06,29.97,30,13,30,0.00
2013-10-2,86.0,80.6,75.7,74.7,72.7,70.2,89,77,60,30.07,29.98,26,15,26,0.00
2013-10-3,86.0,80.6,76.6,75.1,71.9,68.4,87,76,57,30.09,29.98,24,10,24,0.00
2013-10-4,87.2,80.9,77.4,76.5,73.7,68.9,89,79,57,30.11,30.01,26,6,26,0.00
2013-10-5,86.8,80.5,77.1,75.3,72.8,70.0,85,78,59,30.08,29.96,25,9,26,0.00
2013-10-6,85.8,80.4,76.6,76.2,74.2,70.5,92,82,62,30.01,29.89,17,6,17,0.00
2013-10-7,84.5,80.9,74.9,78.1,75.4,72.0,94,84,76,29.89,29.78,29,10,29,0.62
2013-10-8,83.5,80.6,76.3,76.1,74.3,70.8,87,81,75,29.98,29.83,23,8,23,0.00
2013-10-9,78.6,74.9,70.9,71.7,69.2,66.2,87,83,71,30.07,29.97,17,4,17,0.00
2013-10-10,80.8,74.7,68.6,70.5,67.9,65.5,90,80,69,30.09,29.99,16,6,16,0.00
2013-10-11,85.0,77.6,74.0,70.8,68.0,64.8,86,73,57,30.08,29.98,16,5,16,0.00
2013-10-12,84.3,78.0,73.7,68.2,65.8,62.2,81,67,50,30.08,30.00,19,3,19,0.00
2013-10-13,83.0,77.5,71.9,70.5,65.7,59.0,84,68,47,30.11,30.01,14,3,14,0.00
2013-10-14,83.8,77.0,70.7,70.5,67.3,62.6,91,73,52,30.07,29.95,21,4,21,0.00
2013-10-15,79.2,73.9,69.2,72.3,69.2,66.7,93,85,75,30.03,29.92,18,4,18,0.00
2013-10-16,80.2,75.1,71.3,72.3,69.6,68.2,92,84,70,30.00,29.93,13,2,13,0.00
2013-10-17,82.0,77.6,73.1,73.8,71.6,68.8,90,82,72,30.01,29.92,13,3,0,0.00
2013-10-18,84.7,78.8,74.3,75.0,73.0,71.1,92,83,71,30.01,29.92,11,2,0,0.00
2013-10-19,84.5,79.7,76.6,76.9,74.5,72.6,89,84,77,29.98,29.90,14,4,14,0.00
2013-10-20,84.7,79.8,76.8,76.2,74.0,71.9,93,83,72,29.98,29.90,10,1,0,0.06
2013-10-21,83.0,79.4,76.5,76.2,74.0,72.5,92,84,72,30.03,29.95,20,4,0,0.00
2013-10-22,84.0,78.1,72.5,77.3,73.8,70.3,96,87,76,29.98,29.85,18,3,18,0.77
2013-10-23,78.7,75.4,71.5,73.1,65.5,55.5,91,72,52,30.04,29.84,17,4,17,0.02
2013-10-24,71.7,68.5,64.6,61.3,51.9,45.7,73,56,41,30.19,30.03,15,6,22,0.00
2013-10-25,78.5,70.2,62.9,61.9,57.8,49.7,89,67,40,30.27,30.17,14,2,14,0.00
2013-10-26,75.3,68.4,62.8,61.7,58.9,57.0,83,72,56,30.24,30.12,24,5,24,0.00
2013-10-27,76.2,68.1,62.3,62.8,59.2,53.2,88,74,49,30.15,30.08,19,4,19,0.00
2013-10-28,80.1,71.3,64.9,63.3,60.4,55.3,84,69,47,30.22,30.11,19,6,16,0.00
2013-10-29,81.5,73.8,66.6,67.9,64.9,60.0,92,75,51,30.25,30.14,24,9,24,0.00
2013-10-30,81.1,74.8,68.8,69.8,67.3,65.5,90,78,61,30.25,30.10,25,10,25,0.00
2013-10-31,82.7,75.6,71.1,72.6,69.2,66.7,90,81,61,30.15,30.00,19,5,19,0.00